createdAt,value
2023-02-14T00:00:50.332Z,0.80
2023-02-14T00:03:17.506Z,0.70
2023-02-14T00:05:44.368Z,0.60
2023-02-14T00:08:11.211Z,0.60
2023-02-14T00:10:38.108Z,0.40
2023-02-14T00:13:05.155Z,0.40
2023-02-14T00:15:31.933Z,0.50
2023-02-14T00:18:03.124Z,0.50
2023-02-14T00:20:30.078Z,0.50
2023-02-14T00:22:56.906Z,0.50
2023-02-14T00:25:23.818Z,0.50
2023-02-14T00:27:50.687Z,0.50
2023-02-14T00:30:17.629Z,0.50
2023-02-14T00:32:44.801Z,0.50
2023-02-14T00:35:11.944Z,0.40
2023-02-14T00:37:38.838Z,0.40
2023-02-14T00:40:06.982Z,0.40
2023-02-14T00:42:34.135Z,0.40
2023-02-14T00:45:01.073Z,0.40
2023-02-14T00:47:27.981Z,0.30
2023-02-14T00:49:54.902Z,0.20
2023-02-14T00:52:21.827Z,0.20
2023-02-14T00:54:48.684Z,0.30
2023-02-14T00:57:15.523Z,0.30
2023-02-14T00:59:42.386Z,0.30
2023-02-14T01:02:09.303Z,0.30
2023-02-14T01:04:36.255Z,0.10
2023-02-14T01:07:03.048Z,0.10
2023-02-14T01:09:29.970Z,0.10
2023-02-14T01:11:56.770Z,0.10
2023-02-14T01:14:23.583Z,0.10
2023-02-14T01:16:50.511Z,0.10
2023-02-14T01:19:17.375Z,0.10
2023-02-14T01:21:44.315Z,0.10
2023-02-14T01:24:12.946Z,0.20
2023-02-14T01:26:41.034Z,0.20
2023-02-14T01:29:08.164Z,0.20
2023-02-14T01:31:36.183Z,0.20
2023-02-14T01:34:03.520Z,0.10
2023-02-14T01:36:37.435Z,0.10
2023-02-14T01:39:11.560Z,0.00
2023-02-14T01:41:41.462Z,0.00
2023-02-14T01:44:14.352Z,-0.10
2023-02-14T01:46:42.598Z,-0.20
2023-02-14T01:49:11.888Z,-0.30
2023-02-14T01:51:43.247Z,-0.40
2023-02-14T01:54:10.875Z,-0.40
2023-02-14T01:56:44.097Z,-0.40
2023-02-14T01:59:15.235Z,-0.30
2023-02-14T02:01:42.547Z,-0.40
2023-02-14T02:04:14.881Z,-0.30
2023-02-14T02:06:57.289Z,-0.30
2023-02-14T02:09:52.271Z,-0.40
2023-02-14T02:12:19.501Z,-0.50
2023-02-14T02:14:47.118Z,-0.40
2023-02-14T02:17:44.106Z,-0.40
2023-02-14T02:20:26.525Z,-0.30
2023-02-14T02:23:23.476Z,-0.30
2023-02-14T02:26:03.237Z,-0.40
2023-02-14T02:29:00.885Z,-0.30
2023-02-14T02:31:55.080Z,-0.30
2023-02-14T02:34:43.061Z,-0.30
2023-02-14T02:37:39.303Z,-0.40
2023-02-14T02:40:40.340Z,-0.40
2023-02-14T02:43:38.902Z,-0.40
2023-02-14T02:46:37.876Z,-0.40
2023-02-14T02:50:04.195Z,-0.40
2023-02-14T02:53:06.212Z,-0.50
2023-02-14T02:55:57.579Z,-0.60
2023-02-14T02:58:36.824Z,-0.60
2023-02-14T03:01:19.392Z,-0.60
2023-02-14T03:04:08.454Z,-0.60
2023-02-14T03:06:35.451Z,-0.60
2023-02-14T03:09:34.857Z,-0.60
2023-02-14T03:12:17.891Z,-0.70
2023-02-14T03:15:07.672Z,-0.80
2023-02-14T03:17:54.538Z,-0.90
2023-02-14T03:20:21.667Z,-0.90
2023-02-14T03:22:52.979Z,-0.90
2023-02-14T03:25:30.344Z,-0.90
2023-02-14T03:28:15.692Z,-0.90
2023-02-14T03:31:03.337Z,-0.90
2023-02-14T03:33:40.502Z,-0.90
2023-02-14T03:36:12.600Z,-0.90
2023-02-14T03:38:49.699Z,-0.90
2023-02-14T03:41:28.999Z,-0.90
2023-02-14T03:44:00.543Z,-0.90
2023-02-14T03:46:56.232Z,-0.80
2023-02-14T03:49:29.530Z,-0.80
2023-02-14T03:51:58.579Z,-0.90
2023-02-14T03:54:27.385Z,-0.90
2023-02-14T03:57:04.556Z,-1.00
2023-02-14T03:59:31.554Z,-1.00
2023-02-14T04:02:07.225Z,-1.10
2023-02-14T04:04:37.801Z,-1.10
2023-02-14T04:07:15.005Z,-1.10
2023-02-14T04:09:42.058Z,-1.10
2023-02-14T04:12:09.487Z,-1.10
2023-02-14T04:14:36.860Z,-1.10
2023-02-14T04:17:22.468Z,-1.10
2023-02-14T04:19:49.567Z,-1.00
2023-02-14T04:22:16.415Z,-1.00
2023-02-14T04:24:43.534Z,-1.00
2023-02-14T04:27:11.028Z,-1.00
2023-02-14T04:29:47.267Z,-1.00
2023-02-14T04:32:18.955Z,-1.00
2023-02-14T04:34:46.115Z,-1.00
2023-02-14T04:37:14.828Z,-1.00
2023-02-14T04:39:41.993Z,-1.10
2023-02-14T04:42:08.972Z,-1.00
2023-02-14T04:44:38.136Z,-1.20
2023-02-14T04:47:06.151Z,-1.20
2023-02-14T04:49:34.111Z,-1.20
2023-02-14T04:52:01.317Z,-1.10
2023-02-14T04:54:28.396Z,-1.10
2023-02-14T04:56:55.237Z,-1.10
2023-02-14T04:59:24.646Z,-1.10
2023-02-14T05:01:52.541Z,-1.10
2023-02-14T05:04:19.624Z,-1.10
2023-02-14T05:06:46.716Z,-1.00
2023-02-14T05:09:15.052Z,-1.10
2023-02-14T05:11:42.087Z,-1.20
2023-02-14T05:14:09.054Z,-1.20
2023-02-14T05:16:36.065Z,-1.20
2023-02-14T05:19:02.946Z,-1.20
2023-02-14T05:21:33.059Z,-1.30
2023-02-14T05:24:02.785Z,-1.30
2023-02-14T05:26:29.949Z,-1.40
2023-02-14T05:28:56.786Z,-1.40
2023-02-14T05:31:23.943Z,-1.50
2023-02-14T05:33:50.967Z,-1.50
2023-02-14T05:36:17.849Z,-1.40
2023-02-14T05:38:44.718Z,-1.40
2023-02-14T05:41:11.560Z,-1.40
2023-02-14T05:43:38.587Z,-1.40
2023-02-14T05:46:05.586Z,-1.40
2023-02-14T05:48:32.719Z,-1.40
2023-02-14T05:51:08.058Z,-1.40
2023-02-14T05:53:35.169Z,-1.40
2023-02-14T05:56:02.197Z,-1.40
2023-02-14T05:58:29.054Z,-1.40
2023-02-14T06:01:00.148Z,-1.40
2023-02-14T06:03:27.883Z,-1.40
2023-02-14T06:05:54.795Z,-1.40
2023-02-14T06:08:21.649Z,-1.50
2023-02-14T06:10:48.664Z,-1.50
2023-02-14T06:13:15.656Z,-1.50
2023-02-14T06:15:42.650Z,-1.60
2023-02-14T06:18:09.498Z,-1.70
2023-02-14T06:20:36.772Z,-1.60
2023-02-14T06:23:03.969Z,-1.60
2023-02-14T06:25:32.856Z,-1.40
2023-02-14T06:28:00.118Z,-1.40
2023-02-14T06:30:27.749Z,-1.40
2023-02-14T06:32:56.893Z,-1.50
2023-02-14T06:35:23.801Z,-1.50
2023-02-14T06:37:50.654Z,-1.50
2023-02-14T06:40:19.656Z,-1.50
2023-02-14T06:42:46.663Z,-1.50
2023-02-14T06:45:13.513Z,-1.50
2023-02-14T06:47:40.424Z,-1.60
2023-02-14T06:50:08.054Z,-1.70
2023-02-14T06:52:34.880Z,-1.80
2023-02-14T06:55:01.809Z,-1.70
2023-02-14T06:57:28.747Z,-1.60
2023-02-14T06:59:55.697Z,-1.50
2023-02-14T07:02:24.867Z,-1.20
2023-02-14T07:04:52.211Z,-1.20
2023-02-14T07:07:19.231Z,-1.10
2023-02-14T07:09:46.267Z,-1.00
2023-02-14T07:12:13.097Z,-0.90
2023-02-14T07:14:39.928Z,-1.00
2023-02-14T07:17:06.883Z,-0.90
2023-02-14T07:19:33.906Z,-0.90
2023-02-14T07:22:00.931Z,-0.90
2023-02-14T07:24:27.985Z,-0.80
2023-02-14T07:26:54.832Z,-0.80
2023-02-14T07:29:23.246Z,-0.80
2023-02-14T07:31:50.206Z,-0.70
2023-02-14T07:34:17.122Z,-0.60
2023-02-14T07:36:44.226Z,-0.50
2023-02-14T07:39:11.564Z,-0.40
2023-02-14T07:41:38.832Z,-0.20
2023-02-14T07:44:05.675Z,0.00
2023-02-14T07:46:32.586Z,0.30
2023-02-14T07:48:59.518Z,0.60
2023-02-14T07:51:26.328Z,1.00
2023-02-14T07:53:53.134Z,1.20
2023-02-14T07:56:20.352Z,1.50
2023-02-14T07:58:47.207Z,1.80
2023-02-14T08:01:14.064Z,2.10
2023-02-14T08:03:40.985Z,2.40
2023-02-14T08:06:07.852Z,2.70
2023-02-14T08:08:34.710Z,2.90
2023-02-14T08:11:02.214Z,3.20
2023-02-14T08:13:29.583Z,3.50
2023-02-14T08:16:05.940Z,3.80
2023-02-14T08:18:41.789Z,4.00
2023-02-14T08:21:10.731Z,4.30
2023-02-14T08:23:37.917Z,4.50
2023-02-14T08:26:05.194Z,4.70
2023-02-14T08:28:33.575Z,4.80
2023-02-14T08:31:01.091Z,5.00
2023-02-14T08:33:28.786Z,5.30
2023-02-14T08:35:55.657Z,5.50
2023-02-14T08:38:22.585Z,5.70
2023-02-14T08:40:49.447Z,5.90
2023-02-14T08:43:16.600Z,6.10
2023-02-14T08:45:43.717Z,6.20
2023-02-14T08:48:12.607Z,6.40
2023-02-14T08:50:40.354Z,6.60
2023-02-14T08:53:12.850Z,6.80
2023-02-14T08:55:40.602Z,7.00
2023-02-14T08:58:08.260Z,7.10
2023-02-14T09:00:35.375Z,7.30
2023-02-14T09:03:02.417Z,7.40
2023-02-14T09:05:29.535Z,7.50
2023-02-14T09:07:57.153Z,7.60
2023-02-14T09:10:25.454Z,7.80
2023-02-14T09:12:52.479Z,8.00
2023-02-14T09:15:19.682Z,8.20
2023-02-14T09:17:47.619Z,8.30
2023-02-14T09:20:16.110Z,8.50
2023-02-14T09:22:43.594Z,8.60
2023-02-14T09:25:10.516Z,8.70
2023-02-14T09:27:37.692Z,8.80
2023-02-14T09:30:06.859Z,8.90
2023-02-14T09:32:33.878Z,9.00
2023-02-14T09:35:19.299Z,9.00
2023-02-14T09:37:46.125Z,9.10
2023-02-14T09:40:15.814Z,9.00
2023-02-14T09:42:55.164Z,9.10
2023-02-14T09:45:26.504Z,9.40
2023-02-14T09:48:15.145Z,9.60
2023-02-14T09:50:52.642Z,9.60
2023-02-14T09:53:33.114Z,9.80
2023-02-14T09:56:19.447Z,9.90
2023-02-14T09:59:02.582Z,10.00
2023-02-14T10:01:46.820Z,10.20
2023-02-14T10:04:31.242Z,10.10
2023-02-14T10:07:16.831Z,10.40
2023-02-14T10:10:03.162Z,10.60
2023-02-14T10:12:35.566Z,10.70
2023-02-14T10:15:13.921Z,10.90
2023-02-14T10:17:49.514Z,11.10
2023-02-14T10:20:30.193Z,11.10
2023-02-14T10:23:22.256Z,11.30
2023-02-14T10:26:03.327Z,11.50
2023-02-14T10:28:46.413Z,11.50
2023-02-14T10:31:31.676Z,11.70
2023-02-14T10:34:01.667Z,11.80
2023-02-14T10:36:34.295Z,11.90
2023-02-14T10:39:25.568Z,12.00
2023-02-14T10:42:30.168Z,11.90
2023-02-14T10:45:15.516Z,11.80
2023-02-14T10:48:13.515Z,11.80
2023-02-14T10:50:50.314Z,12.00
2023-02-14T10:53:39.776Z,12.30
2023-02-14T10:56:18.500Z,12.40
2023-02-14T10:58:46.747Z,12.50
2023-02-14T11:01:18.293Z,12.50
2023-02-14T11:03:56.263Z,12.60
2023-02-14T11:06:23.083Z,12.80
2023-02-14T11:08:49.993Z,12.90
2023-02-14T11:11:21.486Z,12.80
2023-02-14T11:13:48.805Z,13.00
2023-02-14T11:16:30.295Z,12.70
2023-02-14T11:19:15.542Z,12.70
2023-02-14T11:21:45.682Z,13.00
2023-02-14T11:24:27.546Z,13.20
2023-02-14T11:27:25.845Z,13.30
2023-02-14T11:29:53.136Z,13.40
2023-02-14T11:32:29.750Z,13.60
2023-02-14T11:35:02.640Z,13.70
2023-02-14T11:37:31.628Z,13.90
2023-02-14T11:40:01.375Z,13.80
2023-02-14T11:42:36.354Z,14.00
2023-02-14T11:45:05.239Z,14.20
2023-02-14T11:47:34.594Z,14.20
2023-02-14T11:50:11.028Z,14.20
2023-02-14T11:52:54.500Z,14.10
2023-02-14T11:55:33.858Z,14.30
2023-02-14T11:58:03.169Z,14.60
2023-02-14T12:00:31.495Z,14.90
2023-02-14T12:03:01.211Z,15.10
2023-02-14T12:05:35.318Z,15.20
2023-02-14T12:08:05.146Z,15.30
2023-02-14T12:10:35.192Z,15.60
2023-02-14T12:13:07.753Z,15.60
2023-02-14T12:15:37.825Z,15.50
2023-02-14T12:18:38.236Z,15.20
2023-02-14T12:21:38.742Z,15.40
2023-02-14T12:24:32.885Z,15.20
2023-02-14T12:27:21.365Z,15.30
2023-02-14T12:30:09.409Z,15.50
2023-02-14T12:32:36.416Z,15.40
2023-02-14T12:35:35.701Z,15.70
2023-02-14T12:38:20.608Z,15.90
2023-02-14T12:41:05.400Z,15.50
2023-02-14T12:43:38.205Z,15.80
2023-02-14T12:46:21.620Z,16.10
2023-02-14T12:49:13.227Z,16.20
2023-02-14T12:52:00.438Z,16.40
2023-02-14T12:54:42.813Z,16.30
2023-02-14T12:57:35.323Z,16.40
2023-02-14T13:00:09.959Z,16.60
2023-02-14T13:03:09.210Z,16.90
2023-02-14T13:06:12.700Z,16.80
2023-02-14T13:09:01.521Z,16.30
2023-02-14T13:11:53.574Z,16.40
2023-02-14T13:14:41.938Z,16.10
2023-02-14T13:17:23.816Z,15.70
2023-02-14T13:20:08.753Z,15.70
2023-02-14T13:22:36.162Z,15.70
2023-02-14T13:25:21.792Z,15.80
2023-02-14T13:27:49.354Z,16.20
2023-02-14T13:30:35.285Z,16.60
2023-02-14T13:33:07.681Z,16.70
2023-02-14T13:35:35.130Z,16.80
2023-02-14T13:38:12.132Z,16.80
2023-02-14T13:40:40.360Z,17.00
2023-02-14T13:43:07.264Z,17.40
2023-02-14T13:45:36.975Z,17.80
2023-02-14T13:48:09.268Z,18.00
2023-02-14T13:50:51.205Z,18.00
2023-02-14T13:53:48.674Z,18.00
2023-02-14T13:56:15.496Z,18.00
2023-02-14T13:58:59.882Z,17.90
2023-02-14T14:01:50.273Z,18.10
2023-02-14T14:04:29.424Z,17.80
2023-02-14T14:07:05.474Z,18.00
2023-02-14T14:09:44.939Z,18.10
2023-02-14T14:12:26.515Z,18.20
2023-02-14T14:15:05.604Z,17.60
2023-02-14T14:17:42.866Z,17.70
2023-02-14T14:20:38.941Z,17.30
2023-02-14T14:23:30.330Z,17.30
2023-02-14T14:25:57.322Z,16.90
2023-02-14T14:28:27.094Z,16.90
2023-02-14T14:30:54.735Z,17.10
2023-02-14T14:33:34.422Z,17.10
2023-02-14T14:36:07.355Z,17.20
2023-02-14T14:38:46.211Z,17.10
2023-02-14T14:41:13.110Z,17.10
2023-02-14T14:43:40.889Z,16.90
2023-02-14T14:46:11.881Z,17.20
2023-02-14T14:48:42.854Z,17.30
2023-02-14T14:51:23.445Z,17.20
2023-02-14T14:54:00.974Z,17.30
2023-02-14T14:56:32.556Z,17.20
2023-02-14T14:59:26.845Z,17.10
2023-02-14T15:01:54.590Z,17.10
2023-02-14T15:04:35.332Z,17.00
2023-02-14T15:07:27.563Z,16.80
2023-02-14T15:09:54.446Z,16.90
2023-02-14T15:12:42.414Z,17.00
2023-02-14T15:15:16.969Z,17.00
2023-02-14T15:17:45.640Z,17.00
2023-02-14T15:20:20.127Z,17.40
2023-02-14T15:22:49.180Z,17.50
2023-02-14T15:25:34.935Z,17.20
2023-02-14T15:28:02.916Z,17.20
2023-02-14T15:30:38.003Z,17.30
2023-02-14T15:33:07.463Z,17.30
2023-02-14T15:35:42.280Z,17.30
2023-02-14T15:38:13.944Z,17.10
2023-02-14T15:40:43.586Z,17.00
2023-02-14T15:43:18.188Z,16.90
2023-02-14T15:45:47.865Z,16.80
2023-02-14T15:48:22.341Z,16.90
2023-02-14T15:50:58.186Z,17.10
2023-02-14T15:53:39.992Z,17.10
2023-02-14T15:56:13.795Z,17.10
2023-02-14T15:58:41.600Z,17.20
2023-02-14T16:01:09.392Z,17.30
2023-02-14T16:03:40.005Z,17.30
2023-02-14T16:06:07.225Z,17.30
2023-02-14T16:08:42.293Z,17.30
2023-02-14T16:11:13.719Z,17.40
2023-02-14T16:13:49.723Z,17.40
2023-02-14T16:16:17.995Z,17.40
2023-02-14T16:18:50.164Z,17.30
2023-02-14T16:21:27.660Z,17.10
2023-02-14T16:24:10.853Z,16.90
2023-02-14T16:26:43.505Z,16.70
2023-02-14T16:29:16.171Z,16.50
2023-02-14T16:34:40.819Z,16.00
2023-02-14T16:37:18.933Z,15.50
2023-02-14T16:39:46.491Z,15.30
2023-02-14T16:42:17.162Z,15.00
2023-02-14T16:44:45.304Z,14.70
2023-02-14T16:47:14.149Z,14.50
2023-02-14T16:49:42.035Z,14.30
2023-02-14T16:52:17.566Z,14.20
2023-02-14T16:54:44.754Z,14.00
2023-02-14T16:57:30.682Z,13.90
2023-02-14T16:59:57.560Z,13.70
2023-02-14T17:02:28.354Z,13.50
2023-02-14T17:04:55.552Z,13.40
2023-02-14T17:07:22.688Z,13.30
2023-02-14T17:09:55.137Z,13.10
2023-02-14T17:12:27.000Z,12.90
2023-02-14T17:14:56.457Z,12.70
2023-02-14T17:17:23.457Z,12.60
2023-02-14T17:19:52.657Z,12.40
2023-02-14T17:22:20.014Z,12.30
2023-02-14T17:24:46.872Z,12.10
2023-02-14T17:27:13.734Z,12.00
2023-02-14T17:29:40.617Z,11.80
2023-02-14T17:32:12.156Z,11.70
2023-02-14T17:34:39.578Z,11.70
2023-02-14T17:37:06.881Z,11.70
2023-02-14T17:39:33.929Z,11.70
2023-02-14T17:42:01.040Z,11.60
2023-02-14T17:44:30.265Z,11.40
2023-02-14T17:46:58.011Z,11.20
2023-02-14T17:49:24.997Z,11.10
2023-02-14T17:51:51.909Z,11.00
2023-02-14T17:54:18.978Z,10.90
2023-02-14T17:56:46.071Z,10.80
2023-02-14T17:59:12.873Z,10.60
2023-02-14T18:01:39.765Z,10.30
2023-02-14T18:04:09.354Z,10.10
2023-02-14T18:06:37.252Z,9.80
2023-02-14T18:09:07.293Z,9.60
2023-02-14T18:11:34.262Z,9.40
2023-02-14T18:14:01.804Z,9.20
2023-02-14T18:16:28.814Z,9.10
2023-02-14T18:18:55.877Z,8.90
2023-02-14T18:21:24.574Z,8.80
2023-02-14T18:23:51.972Z,8.70
2023-02-14T18:26:19.539Z,8.50
2023-02-14T18:28:46.807Z,8.10
2023-02-14T18:31:16.854Z,8.00
2023-02-14T18:33:44.906Z,7.90
2023-02-14T18:36:17.370Z,7.90
2023-02-14T18:38:46.042Z,7.80
2023-02-14T18:41:16.695Z,7.90
2023-02-14T18:43:44.669Z,7.80
2023-02-14T18:46:30.189Z,7.90
2023-02-14T18:48:57.530Z,7.70
2023-02-14T18:51:30.302Z,7.60
2023-02-14T18:53:59.018Z,7.10
2023-02-14T18:56:28.936Z,6.80
2023-02-14T18:59:01.477Z,6.50
2023-02-14T19:01:39.644Z,6.70
2023-02-14T19:04:09.044Z,6.70
2023-02-14T19:06:36.543Z,6.70
2023-02-14T19:09:07.104Z,6.70
2023-02-14T19:11:34.287Z,6.70
2023-02-14T19:14:02.817Z,6.70
2023-02-14T19:16:33.171Z,6.70
2023-02-14T19:19:02.805Z,6.80
2023-02-14T19:21:36.751Z,6.80
2023-02-14T19:24:07.043Z,6.70
2023-02-14T19:26:37.688Z,6.60
2023-02-14T19:29:07.422Z,6.50
2023-02-14T19:31:37.516Z,6.50
2023-02-14T19:34:06.262Z,6.30
2023-02-14T19:36:38.432Z,6.20
2023-02-14T19:39:05.470Z,6.20
2023-02-14T19:41:37.125Z,6.20
2023-02-14T19:44:07.298Z,6.20
2023-02-14T19:46:34.979Z,6.20
2023-02-14T19:49:02.449Z,6.20
2023-02-14T19:51:32.703Z,6.10
2023-02-14T19:54:02.111Z,5.90
2023-02-14T19:56:31.653Z,5.70
2023-02-14T19:58:59.244Z,5.80
2023-02-14T20:01:36.806Z,5.70
2023-02-14T20:04:06.096Z,5.60
2023-02-14T20:06:33.456Z,5.70
2023-02-14T20:09:00.300Z,5.70
2023-02-14T20:11:35.586Z,5.70
2023-02-14T20:14:03.563Z,5.80
2023-02-14T20:16:31.948Z,5.70
2023-02-14T20:19:01.470Z,5.70
2023-02-14T20:21:28.607Z,5.50
2023-02-14T20:24:00.800Z,5.40
2023-02-14T20:26:29.487Z,5.40
2023-02-14T20:28:59.716Z,5.30
2023-02-14T20:31:27.861Z,5.30
2023-02-14T20:33:56.848Z,5.20
2023-02-14T20:36:25.033Z,5.00
2023-02-14T20:38:56.316Z,4.90
2023-02-14T20:41:23.499Z,4.60
2023-02-14T20:43:50.438Z,4.50
2023-02-14T20:46:17.527Z,4.50
2023-02-14T20:48:45.659Z,4.60
2023-02-14T20:51:15.113Z,4.60
2023-02-14T20:53:42.951Z,4.50
2023-02-14T20:56:10.832Z,4.50
2023-02-14T20:58:38.579Z,4.50
2023-02-14T21:01:25.815Z,4.60
2023-02-14T21:03:54.354Z,4.40
2023-02-14T21:06:24.251Z,4.30
2023-02-14T21:08:51.559Z,4.20
2023-02-14T21:11:20.009Z,4.20
2023-02-14T21:13:47.257Z,4.10
2023-02-14T21:16:17.311Z,4.10
2023-02-14T21:18:51.716Z,4.10
2023-02-14T21:21:38.722Z,4.00
2023-02-14T21:24:11.207Z,4.00
2023-02-14T21:26:39.061Z,4.00
2023-02-14T21:29:07.514Z,4.00
2023-02-14T21:31:35.742Z,4.00
2023-02-14T21:34:04.869Z,3.90
2023-02-14T21:36:35.552Z,3.90
2023-02-14T21:39:04.284Z,3.80
2023-02-14T21:41:31.566Z,3.80
2023-02-14T21:44:00.725Z,3.80
2023-02-14T21:46:31.400Z,3.70
2023-02-14T21:49:19.053Z,3.70
2023-02-14T21:51:47.266Z,3.60
2023-02-14T21:54:15.129Z,3.50
2023-02-14T21:56:42.973Z,3.50
2023-02-14T21:59:10.263Z,3.50
2023-02-14T22:01:39.527Z,3.60
2023-02-14T22:04:11.685Z,3.50
2023-02-14T22:06:40.749Z,3.50
2023-02-14T22:09:07.950Z,3.40
2023-02-14T22:11:35.608Z,3.30
2023-02-14T22:14:02.805Z,3.10
2023-02-14T22:16:29.985Z,3.10
2023-02-14T22:18:57.337Z,3.00
2023-02-14T22:21:26.610Z,3.00
2023-02-14T22:23:54.314Z,3.00
2023-02-14T22:26:26.299Z,3.10
2023-02-14T22:28:59.139Z,3.00
2023-02-14T22:31:30.134Z,3.10
2023-02-14T22:33:57.116Z,3.10
2023-02-14T22:36:24.493Z,3.10
2023-02-14T22:38:51.337Z,3.10
2023-02-14T22:41:24.832Z,2.90
2023-02-14T22:43:53.119Z,2.90
2023-02-14T22:46:28.486Z,3.00
2023-02-14T22:48:57.082Z,3.00
2023-02-14T22:51:30.237Z,3.00
2023-02-14T22:54:02.703Z,3.10
2023-02-14T22:56:34.933Z,3.00
2023-02-14T22:59:04.937Z,2.70
2023-02-14T23:01:33.862Z,2.60
2023-02-14T23:04:02.343Z,2.40
2023-02-14T23:06:31.337Z,2.30
2023-02-14T23:08:59.007Z,2.30
2023-02-14T23:11:29.116Z,2.30
2023-02-14T23:14:17.033Z,2.30
2023-02-14T23:17:03.154Z,2.30
2023-02-14T23:19:51.210Z,2.30
2023-02-14T23:22:39.525Z,2.10
2023-02-14T23:25:08.923Z,2.10
2023-02-14T23:27:42.059Z,2.10
2023-02-14T23:30:12.663Z,2.20
2023-02-14T23:32:39.800Z,2.10
2023-02-14T23:35:07.501Z,2.10
2023-02-14T23:37:34.437Z,2.10
2023-02-14T23:40:01.232Z,2.00
2023-02-14T23:42:28.571Z,2.00
2023-02-14T23:45:15.466Z,2.00
2023-02-14T23:47:42.301Z,2.00
2023-02-14T23:50:09.543Z,2.00
2023-02-14T23:52:38.550Z,1.90
2023-02-14T23:55:05.878Z,1.80
2023-02-14T23:57:32.683Z,1.80
